Time;durP1;ratioP1;P1;durP2;ratioP2;P2;SDS_P1;SDS_P2;PMS_P1;PMS_P2;Temp;Humidity;BMP_temperature;BMP_pressure;BME280_temperature;BME280_humidity;BME280_pressure;Samples;Min_cycle;Max_cycle;Signal;HPM_P1;HPM_P2
2022/04/11 00:00:36;;;;;;;3.60;2.05;;;;;;;7.15;60.07;102010.81;4994987;28;116858;-35
2022/04/11 00:03:02;;;;;;;5.72;1.77;;;;;;;7.14;59.10;102008.16;4997201;28;96899;-34
2022/04/11 00:05:27;;;;;;;3.35;2.25;;;;;;;7.14;58.76;101997.38;4996797;28;97461;-34
2022/04/11 00:07:53;;;;;;;4.25;2.05;;;;;;;7.18;59.19;102009.84;4996341;28;99715;-34
2022/04/11 00:10:18;;;;;;;4.22;1.98;;;;;;;7.14;59.13;102003.63;4996134;28;117469;-34
2022/04/11 00:12:44;;;;;;;5.40;2.38;;;;;;;7.19;59.33;102003.50;4997026;28;96759;-34
2022/04/11 00:15:10;;;;;;;4.97;2.42;;;;;;;7.17;59.07;102003.53;4994622;28;101101;-34
2022/04/11 00:17:36;;;;;;;4.03;2.53;;;;;;;7.16;58.97;102006.28;4995165;28;100748;-34
2022/04/11 00:20:04;;;;;;;4.20;2.33;;;;;;;7.05;58.89;101976.94;4997132;28;96454;-34
2022/04/11 00:22:29;;;;;;;4.22;1.95;;;;;;;7.12;59.24;101994.69;4995566;28;96746;-34
2022/04/11 00:24:55;;;;;;;5.55;2.17;;;;;;;7.05;59.00;101979.66;4996476;28;98130;-34
2022/04/11 00:27:20;;;;;;;5.15;2.30;;;;;;;7.07;59.17;101979.63;4995547;28;97830;-34
2022/04/11 00:29:45;;;;;;;10.15;2.22;;;;;;;7.09;59.33;101983.16;4996454;28;98884;-34
2022/04/11 00:32:11;;;;;;;2.90;2.10;;;;;;;7.07;59.05;101975.09;4996593;28;97539;-34
2022/04/11 00:34:36;;;;;;;5.68;2.72;;;;;;;7.11;59.25;101986.69;4996084;28;99282;-34
2022/04/11 00:37:02;;;;;;;2.75;1.92;;;;;;;7.13;59.42;101984.84;4996243;28;99137;-34
2022/04/11 00:39:27;;;;;;;4.82;2.45;;;;;;;7.05;59.66;101976.94;4996035;28;96544;-34
2022/04/11 00:41:52;;;;;;;10.30;2.47;;;;;;;7.10;59.05;101984.91;4995842;28;114755;-34
2022/04/11 00:44:17;;;;;;;4.13;2.20;;;;;;;7.12;59.37;101988.44;4996110;28;102279;-34
2022/04/11 00:46:43;;;;;;;5.95;2.17;;;;;;;7.02;59.52;101977.06;4995837;28;99135;-34
2022/04/11 00:49:08;;;;;;;4.07;2.15;;;;;;;6.98;59.99;101972.66;4995724;28;111620;-34
2022/04/11 00:51:34;;;;;;;3.50;2.13;;;;;;;7.02;60.41;101986.00;4996370;28;96901;-34
2022/04/11 00:54:12;;;;;;;4.50;2.35;;;;;;;7.00;59.88;101973.50;4996150;28;97897;-34
2022/04/11 00:56:37;;;;;;;3.95;2.72;;;;;;;6.99;59.40;101982.53;4996635;28;97468;-34
2022/04/11 00:59:03;;;;;;;6.25;3.13;;;;;;;6.91;60.33;101976.47;4996374;28;96689;-34
2022/04/11 01:01:28;;;;;;;5.60;2.35;;;;;;;6.89;59.91;101972.91;4996112;28;96842;-34
2022/04/11 01:03:54;;;;;;;10.05;3.13;;;;;;;6.93;60.60;101975.47;4994023;28;100655;-34
2022/04/11 01:06:19;;;;;;;4.43;2.15;;;;;;;6.90;59.60;101975.59;4996008;28;97352;-34
2022/04/11 01:08:45;;;;;;;4.50;2.50;;;;;;;6.92;59.82;101989.03;4994426;28;111723;-34
2022/04/11 01:11:10;;;;;;;7.15;2.30;;;;;;;6.79;59.78;101953.44;4995967;28;96823;-34
2022/04/11 01:13:36;;;;;;;4.10;2.58;;;;;;;6.89;60.04;101973.84;4994225;28;99676;-34
2022/04/11 01:16:04;;;;;;;4.03;2.50;;;;;;;6.86;60.37;101964.94;4995526;28;97897;-34
2022/04/11 01:18:35;;;;;;;5.43;3.03;;;;;;;6.86;60.20;101970.31;4994603;28;96693;-34
2022/04/11 01:21:01;;;;;;;4.53;2.53;;;;;;;6.83;60.57;101970.41;4995027;28;96699;-34
2022/04/11 01:23:26;;;;;;;5.30;2.92;;;;;;;6.72;60.51;101958.16;4994148;28;101576;-34
2022/04/11 01:25:53;;;;;;;8.00;3.05;;;;;;;6.75;60.40;101963.44;4994958;28;115194;-34
2022/04/11 01:28:20;;;;;;;5.40;2.25;;;;;;;6.79;60.21;101962.44;4993894;28;96673;-34
2022/04/11 01:30:53;;;;;;;6.40;3.20;;;;;;;6.69;60.42;101952.81;4994437;28;96749;-34
2022/04/11 01:33:21;;;;;;;7.03;2.65;;;;;;;6.76;60.08;101975.97;4994181;28;100959;-34
2022/04/11 01:35:46;;;;;;;3.50;2.15;;;;;;;6.73;60.93;101970.66;4995263;28;97855;-34
2022/04/11 01:38:12;;;;;;;4.40;2.80;;;;;;;6.62;61.09;101950.34;4994836;28;106690;-34
2022/04/11 01:40:37;;;;;;;9.80;3.22;;;;;;;6.68;60.61;101959.16;4995484;28;96774;-34
2022/04/11 01:43:03;;;;;;;3.03;2.08;;;;;;;6.61;60.51;101956.66;4995256;28;97932;-34
2022/04/11 01:45:37;;;;;;;3.20;1.90;;;;;;;6.67;62.15;101961.88;4994313;28;100890;-34
2022/04/11 01:48:03;;;;;;;4.72;2.83;;;;;;;6.59;61.47;101948.63;4994938;28;111273;-34
2022/04/11 01:50:28;;;;;;;3.17;1.85;;;;;;;6.58;60.99;101955.81;4995506;28;96731;-34
2022/04/11 01:52:53;;;;;;;5.07;2.92;;;;;;;6.59;60.92;101960.28;4994698;28;96765;-34
2022/04/11 01:55:18;;;;;;;3.80;1.83;;;;;;;6.60;61.93;101958.47;4992557;28;129648;-34
2022/04/11 01:57:44;;;;;;;5.07;3.15;;;;;;;6.51;61.34;101946.16;4994636;28;117338;-34
2022/04/11 02:00:10;;;;;;;4.13;2.50;;;;;;;6.53;61.70;101959.53;4994686;28;116691;-34
2022/04/11 02:02:35;;;;;;;4.70;1.90;;;;;;;6.49;61.36;101957.88;4994821;28;97859;-34
2022/04/11 02:05:00;;;;;;;4.82;2.90;;;;;;;6.44;61.85;101958.00;4993986;28;126727;-34
2022/04/11 02:07:25;;;;;;;10.52;2.78;;;;;;;6.40;61.87;101950.94;4994181;28;116465;-35
2022/04/11 02:09:51;;;;;;;8.77;2.58;;;;;;;6.34;61.78;101943.00;4994174;28;96589;-34
2022/04/11 02:12:16;;;;;;;4.20;2.70;;;;;;;6.31;62.06;101951.16;4992566;28;129321;-34
2022/04/11 02:14:42;;;;;;;8.02;2.65;;;;;;;6.31;62.22;101949.34;4994852;28;97716;-34
2022/04/11 02:17:07;;;;;;;5.70;2.42;;;;;;;6.32;61.42;101953.81;4994488;28;96503;-34
2022/04/11 02:19:32;;;;;;;4.60;2.88;;;;;;;6.21;61.83;101944.25;4994887;28;96856;-34
2022/04/11 02:21:58;;;;;;;5.97;3.47;;;;;;;6.28;62.53;101960.19;4994923;28;97767;-34
2022/04/11 02:24:23;;;;;;;5.95;2.67;;;;;;;6.23;61.10;101954.06;4993584;28;127018;-35
2022/04/11 02:26:48;;;;;;;4.38;2.42;;;;;;;6.18;61.73;101949.72;4995037;28;96566;-35
2022/04/11 02:29:13;;;;;;;5.97;2.33;;;;;;;6.17;61.48;101948.81;4993992;28;116274;-34
2022/04/11 02:31:39;;;;;;;6.78;2.78;;;;;;;6.14;61.77;101940.84;4994780;28;98091;-34
2022/04/11 02:34:04;;;;;;;12.10;3.15;;;;;;;6.18;62.27;101952.41;4993641;28;128286;-34
2022/04/11 02:36:29;;;;;;;6.45;2.75;;;;;;;6.07;62.30;101944.59;4994784;28;96487;-34
2022/04/11 02:38:55;;;;;;;4.78;2.90;;;;;;;6.05;62.98;101947.31;4994189;28;115493;-35
2022/04/11 02:41:20;;;;;;;4.60;2.72;;;;;;;6.06;62.58;101956.31;4992838;28;126037;-34
2022/04/11 02:43:45;;;;;;;4.85;2.60;;;;;;;6.03;62.28;101957.25;4994570;28;97888;-34
2022/04/11 02:46:11;;;;;;;6.55;3.45;;;;;;;5.99;62.87;101944.81;4994496;28;98563;-34
2022/04/11 02:48:37;;;;;;;4.60;2.70;;;;;;;6.02;61.93;101951.91;4994781;28;96771;-34
2022/04/11 02:51:02;;;;;;;4.93;2.92;;;;;;;6.01;62.33;101959.09;4997463;28;99390;-34
2022/04/11 02:53:27;;;;;;;4.95;2.40;;;;;;;5.94;62.40;101949.41;4998024;28;97801;-34
2022/04/11 02:55:52;;;;;;;5.30;3.55;;;;;;;5.92;62.68;101943.16;4997134;28;102321;-34
2022/04/11 02:58:18;;;;;;;2.78;1.92;;;;;;;5.90;62.36;101942.31;4997616;28;115239;-34
2022/04/11 03:00:43;;;;;;;3.50;2.70;;;;;;;5.88;62.94;101947.72;4995419;28;127446;-34
2022/04/11 03:03:10;;;;;;;6.15;3.58;;;;;;;5.87;62.87;101940.59;4997656;28;102727;-34
2022/04/11 03:05:36;;;;;;;3.60;2.03;;;;;;;5.85;63.55;101938.84;4997473;28;96522;-34
2022/04/11 03:08:01;;;;;;;6.55;3.45;;;;;;;5.87;62.80;101950.47;4997637;28;96772;-34
2022/04/11 03:10:27;;;;;;;5.30;2.55;;;;;;;5.79;63.26;101941.66;4997669;28;97892;-34
2022/04/11 03:12:52;;;;;;;6.22;2.90;;;;;;;5.83;63.56;101946.94;4996901;28;119939;-34
2022/04/11 03:15:17;;;;;;;6.65;3.42;;;;;;;5.72;63.66;101928.41;4998093;28;96630;-34
2022/04/11 03:17:42;;;;;;;8.20;2.97;;;;;;;5.71;64.16;101928.44;4996981;28;116483;-34
2022/04/11 03:20:08;;;;;;;8.20;3.17;;;;;;;5.75;63.86;101932.81;4996872;28;119626;-34
2022/04/11 03:22:34;;;;;;;15.55;3.85;;;;;;;5.73;63.63;101932.84;4996516;28;100886;-34
2022/04/11 03:24:59;;;;;;;2.58;2.05;;;;;;;5.67;63.95;101927.63;4997738;28;96719;-34
2022/04/11 03:27:24;;;;;;;2.70;1.90;;;;;;;5.63;64.27;101917.00;4997933;28;96746;-34
2022/04/11 03:29:49;;;;;;;6.82;2.17;;;;;;;5.62;63.44;101918.75;4994927;28;123255;-34
2022/04/11 03:32:15;;;;;;;3.38;2.53;;;;;;;5.62;63.95;101920.56;4996792;28;117282;-34
2022/04/11 03:34:40;;;;;;;13.38;3.47;;;;;;;5.47;64.52;101906.56;4996680;28;117203;-34
2022/04/11 03:37:05;;;;;;;6.07;2.67;;;;;;;5.46;64.06;101909.31;4997511;28;96581;-34
2022/04/11 03:39:31;;;;;;;10.40;3.00;;;;;;;5.57;64.42;101933.25;4997307;28;97362;-34
2022/04/11 03:41:56;;;;;;;6.30;3.03;;;;;;;5.51;64.65;101924.41;4997184;28;97897;-34
2022/04/11 03:44:21;;;;;;;3.03;2.35;;;;;;;5.47;65.13;101913.75;4995388;28;120215;-34
2022/04/11 03:46:46;;;;;;;8.82;3.38;;;;;;;5.40;64.51;101904.06;4997584;28;99586;-34
2022/04/11 03:49:12;;;;;;;5.28;3.28;;;;;;;5.47;64.47;101917.31;4996949;28;98987;-34
2022/04/11 03:51:37;;;;;;;4.93;2.63;;;;;;;5.41;64.54;101909.44;4996971;28;99805;-34
2022/04/11 03:54:03;;;;;;;6.15;2.92;;;;;;;5.43;64.55;101926.38;4996367;28;97109;-34
2022/04/11 03:56:28;;;;;;;3.95;2.80;;;;;;;5.37;64.32;101913.09;4996976;28;96899;-34
2022/04/11 03:58:53;;;;;;;10.73;3.63;;;;;;;5.36;64.39;101919.38;4997060;28;97923;-34
2022/04/11 04:01:19;;;;;;;6.32;3.28;;;;;;;5.37;64.52;101917.59;4997067;28;97812;-34
2022/04/11 04:03:44;;;;;;;4.20;2.67;;;;;;;5.29;64.46;101912.38;4996392;28;117446;-34
2022/04/11 04:06:11;;;;;;;4.50;3.05;;;;;;;5.34;64.61;101921.22;4996166;28;116993;-35
2022/04/11 04:08:36;;;;;;;4.00;2.83;;;;;;;5.28;64.75;101913.28;4994933;28;101081;-34
2022/04/11 04:11:01;;;;;;;3.35;2.08;;;;;;;5.26;64.60;101913.31;4996988;28;99559;-34
2022/04/11 04:13:27;;;;;;;5.97;2.90;;;;;;;5.25;65.04;101916.94;4997147;28;96474;-34
2022/04/11 04:15:58;;;;;;;4.43;2.67;;;;;;;5.21;65.19;101915.22;4996752;28;96883;-34
2022/04/11 04:18:23;;;;;;;3.88;2.60;;;;;;;5.25;64.75;101918.75;4996018;28;108993;-34
2022/04/11 04:20:49;;;;;;;3.00;2.45;;;;;;;5.22;65.31;101916.09;4996574;28;98619;-34
2022/04/11 04:23:16;;;;;;;7.18;3.13;;;;;;;5.23;65.28;101920.59;4996978;28;96579;-34
2022/04/11 04:25:42;;;;;;;4.55;2.60;;;;;;;5.17;65.59;101905.47;4995463;28;96840;-34
2022/04/11 04:28:07;;;;;;;3.42;2.53;;;;;;;5.19;65.11;101908.13;4994272;28;118942;-34
2022/04/11 04:30:32;;;;;;;7.18;3.78;;;;;;;5.18;64.89;101909.94;4996104;28;109507;-34
2022/04/11 04:32:58;;;;;;;4.60;2.80;;;;;;;5.09;65.10;101891.34;4996936;28;97300;-34
2022/04/11 04:35:24;;;;;;;4.57;3.05;;;;;;;5.08;65.11;101897.63;4995554;28;96763;-34
2022/04/11 04:37:50;;;;;;;5.97;3.22;;;;;;;5.09;65.46;101896.72;4994611;28;100818;-34
2022/04/11 04:40:15;;;;;;;4.47;2.65;;;;;;;5.03;65.42;101884.31;4996656;28;97203;-34
2022/04/11 04:42:40;;;;;;;4.90;2.80;;;;;;;5.08;64.98;101901.19;4995529;28;111913;-34
2022/04/11 04:45:06;;;;;;;3.38;2.38;;;;;;;5.07;65.02;101898.53;4995287;28;119388;-34
2022/04/11 04:47:32;;;;;;;7.28;4.03;;;;;;;5.02;65.17;101895.94;4994875;28;99635;-34
2022/04/11 04:49:57;;;;;;;7.10;3.45;;;;;;;4.95;65.38;101885.38;4978186;28;100939;-34
2022/04/11 04:52:22;;;;;;;6.40;3.30;;;;;;;5.05;65.34;101897.69;4996204;28;96540;-34
2022/04/11 04:54:47;;;;;;;3.97;2.95;;;;;;;4.99;66.41;101898.72;4996151;28;98100;-34
2022/04/11 04:57:13;;;;;;;5.43;3.42;;;;;;;4.95;65.75;101893.44;4994462;28;99438;-34
2022/04/11 04:59:38;;;;;;;5.90;3.42;;;;;;;4.94;65.33;101902.41;4996077;28;105919;-34
2022/04/11 05:02:03;;;;;;;5.50;3.08;;;;;;;4.97;65.68;101905.91;4995086;28;118855;-34
2022/04/11 05:04:29;;;;;;;2.88;2.47;;;;;;;4.93;65.91;101900.63;4996682;28;96765;-34
2022/04/11 05:06:54;;;;;;;4.78;2.92;;;;;;;4.86;66.06;101890.03;4994571;28;124256;-34
2022/04/11 05:09:19;;;;;;;7.03;3.60;;;;;;;4.93;66.07;101904.19;4994268;28;126626;-34
2022/04/11 05:11:45;;;;;;;4.80;2.85;;;;;;;4.89;65.43;101895.34;4995534;28;96502;-34
2022/04/11 05:14:11;;;;;;;5.75;3.47;;;;;;;4.89;65.03;101889.09;4996003;28;96949;-34
2022/04/11 05:16:36;;;;;;;7.90;3.22;;;;;;;4.85;65.19;101874.84;4994145;28;100838;-34
2022/04/11 05:19:03;;;;;;;6.55;3.85;;;;;;;4.96;65.73;101898.78;4995575;28;99109;-34
2022/04/11 05:21:28;;;;;;;3.47;2.22;;;;;;;4.91;65.48;101881.91;4994393;28;96693;-34
2022/04/11 05:23:54;;;;;;;9.45;3.38;;;;;;;4.97;65.83;101900.53;4996226;28;96775;-34
2022/04/11 05:26:19;;;;;;;6.50;4.10;;;;;;;4.97;66.51;101902.34;4995275;28;99349;-34
2022/04/11 05:28:45;;;;;;;15.07;3.28;;;;;;;4.94;64.73;101889.00;4995504;28;99144;-34
2022/04/11 05:31:10;;;;;;;6.82;3.20;;;;;;;4.99;65.35;101895.16;4993890;28;96783;-34
2022/04/11 05:33:36;;;;;;;7.18;4.18;;;;;;;4.99;64.97;101890.66;4994881;28;117641;-34
2022/04/11 05:36:01;;;;;;;6.70;3.47;;;;;;;5.07;65.50;101906.59;4995408;28;98018;-34
2022/04/11 05:38:27;;;;;;;2.85;1.98;;;;;;;5.09;64.74;101902.94;4994773;28;113320;-34
2022/04/11 05:40:52;;;;;;;3.35;2.08;;;;;;;5.14;65.12;101908.22;4995478;28;96494;-34
2022/04/11 05:43:17;;;;;;;13.65;3.65;;;;;;;5.18;64.51;101901.00;4995888;28;96790;-34
2022/04/11 05:45:43;;;;;;;6.65;3.33;;;;;;;5.16;64.56;101897.47;4995014;28;100227;-34
2022/04/11 05:48:17;;;;;;;3.97;2.90;;;;;;;5.23;64.68;101907.16;4995672;28;97794;-34
2022/04/11 05:50:42;;;;;;;6.47;3.95;;;;;;;5.29;64.69;101904.31;4995535;28;96704;-35
2022/04/11 05:53:07;;;;;;;4.80;3.08;;;;;;;5.30;64.15;101896.22;4995598;28;96803;-34
2022/04/11 05:55:32;;;;;;;5.88;3.45;;;;;;;5.31;63.84;101898.00;4993912;28;113665;-34
2022/04/11 05:57:59;;;;;;;7.22;3.85;;;;;;;5.32;64.24;101893.50;4994926;28;99068;-34
2022/04/11 06:00:24;;;;;;;11.25;3.88;;;;;;;5.36;64.02;101900.56;4995346;28;96530;-34
2022/04/11 06:02:50;;;;;;;6.93;4.05;;;;;;;5.45;64.10;101903.03;4994461;28;111263;-34
2022/04/11 06:05:15;;;;;;;10.43;3.38;;;;;;;5.49;64.17;101906.56;4994870;28;97855;-34
2022/04/11 06:07:41;;;;;;;6.28;3.17;;;;;;;5.48;64.26;101896.72;4994276;28;97793;-34
2022/04/11 06:10:07;;;;;;;5.35;3.13;;;;;;;5.57;63.70;101901.88;4995444;28;96525;-34
2022/04/11 06:12:33;;;;;;;7.47;3.25;;;;;;;5.66;63.82;101915.09;4994042;28;96830;-34
2022/04/11 06:14:59;;;;;;;6.88;3.60;;;;;;;5.66;62.89;101893.59;4994840;28;98418;-34
2022/04/11 06:17:24;;;;;;;6.97;3.40;;;;;;;5.72;63.41;101890.75;4994879;28;97927;-34
2022/04/11 06:19:54;;;;;;;8.90;4.05;;;;;;;5.86;63.05;101911.03;4994658;28;96592;-34
2022/04/11 06:22:20;;;;;;;5.10;3.60;;;;;;;5.93;63.04;101902.78;4993607;28;96843;-34
2022/04/11 06:24:46;;;;;;;6.93;4.07;;;;;;;6.03;62.45;101902.56;4992133;28;99579;-34
2022/04/11 06:27:12;;;;;;;5.70;3.75;;;;;;;6.15;62.60;101902.28;4993337;28;100842;-34
2022/04/11 06:29:37;;;;;;;3.35;2.90;;;;;;;6.24;62.21;101899.31;4995125;28;96596;-34
2022/04/11 06:32:04;;;;;;;7.18;3.88;;;;;;;6.39;62.13;101906.13;4994934;28;96754;-34
2022/04/11 06:34:34;;;;;;;8.00;3.53;;;;;;;6.53;61.95;101908.41;4992754;28;100950;-34
2022/04/11 06:37:00;;;;;;;4.43;3.05;;;;;;;6.61;61.90;101906.41;4993454;28;100965;-34
2022/04/11 06:39:25;;;;;;;5.18;3.72;;;;;;;6.65;61.55;101881.16;4994128;28;115663;-34
2022/04/11 06:41:51;;;;;;;5.85;3.13;;;;;;;6.74;61.01;101894.34;4995071;28;96878;-34
2022/04/11 06:44:16;;;;;;;4.93;3.22;;;;;;;6.88;60.96;101885.88;4994145;28;97915;-34
2022/04/11 06:46:41;;;;;;;3.60;2.92;;;;;;;7.10;60.87;101901.38;4994527;28;97737;-34
2022/04/11 06:49:07;;;;;;;5.25;3.58;;;;;;;7.32;60.25;101904.34;4993718;28;116527;-34
2022/04/11 06:51:32;;;;;;;7.63;2.97;;;;;;;7.52;60.38;101899.19;4994837;28;96833;-34
2022/04/11 06:53:57;;;;;;;5.05;3.40;;;;;;;7.67;59.77;101900.50;4994158;28;99085;-34
2022/04/11 06:56:23;;;;;;;7.10;3.47;;;;;;;7.81;59.94;101898.22;4993186;28;126490;-34
2022/04/11 06:58:48;;;;;;;6.45;3.50;;;;;;;7.99;59.00;101894.03;4993641;28;114984;-34
2022/04/11 07:01:13;;;;;;;8.10;4.55;;;;;;;8.12;59.20;101880.13;4995073;28;96814;-34
2022/04/11 07:03:39;;;;;;;7.05;4.10;;;;;;;8.30;58.86;101884.88;4994005;28;99373;-34
2022/04/11 07:06:13;;;;;;;6.25;3.47;;;;;;;8.48;58.74;101880.66;4992853;28;126174;-34
2022/04/11 07:08:39;;;;;;;5.22;3.65;;;;;;;8.53;58.38;101875.97;4993524;28;96452;-34
2022/04/11 07:11:06;;;;;;;6.43;3.67;;;;;;;8.69;58.04;101871.75;4993033;28;96838;-34
2022/04/11 07:13:32;;;;;;;6.45;3.33;;;;;;;8.77;57.68;101862.50;4992657;28;99281;-34
2022/04/11 07:15:57;;;;;;;6.10;4.22;;;;;;;8.97;57.70;101859.94;4992616;28;100715;-34
2022/04/11 07:18:27;;;;;;;7.50;3.92;;;;;;;9.13;57.54;101861.09;4993372;28;116852;-34
2022/04/11 07:20:53;;;;;;;7.43;3.83;;;;;;;9.22;57.18;101857.13;4994267;28;96705;-34
2022/04/11 07:23:18;;;;;;;8.40;3.72;;;;;;;9.34;57.54;101858.47;4993755;28;98941;-34
2022/04/11 07:25:44;;;;;;;6.20;3.70;;;;;;;9.61;56.78;101883.53;4994301;28;97785;-34
2022/04/11 07:28:10;;;;;;;6.72;3.33;;;;;;;9.83;56.25;101867.28;4994432;28;96496;-34
2022/04/11 07:30:35;;;;;;;6.07;3.50;;;;;;;10.06;55.61;101869.03;4992723;28;96771;-34
2022/04/11 07:33:00;;;;;;;4.80;3.03;;;;;;;10.09;55.01;101858.03;4993528;28;97629;-34
2022/04/11 07:35:25;;;;;;;9.25;4.15;;;;;;;10.28;55.22;101847.31;4994580;28;104832;-34
2022/04/11 07:37:51;;;;;;;8.75;3.63;;;;;;;10.51;55.29;101865.28;4996780;28;117670;-34
2022/04/11 07:40:16;;;;;;;8.52;3.97;;;;;;;10.74;54.92;101861.50;4997778;28;96856;-34
2022/04/11 07:42:41;;;;;;;5.07;3.50;;;;;;;10.90;54.73;101867.09;4997416;28;97984;-34
2022/04/11 07:45:07;;;;;;;6.47;3.47;;;;;;;11.05;54.40;101852.81;4996210;28;121686;-34
2022/04/11 07:47:33;;;;;;;6.53;3.40;;;;;;;11.12;53.31;101837.13;4996132;28;96658;-34
2022/04/11 07:49:58;;;;;;;5.30;2.95;;;;;;;11.30;53.25;101840.78;4997876;28;96814;-34
2022/04/11 07:52:25;;;;;;;6.00;2.90;;;;;;;11.33;52.96;101834.34;4996840;28;105626;-34
2022/04/11 07:54:50;;;;;;;8.20;3.45;;;;;;;11.43;52.37;101825.66;4996657;28;99125;-34
2022/04/11 07:57:16;;;;;;;6.95;3.95;;;;;;;11.63;53.20;101824.69;4996186;28;98252;-34
2022/04/11 07:59:41;;;;;;;6.72;3.47;;;;;;;11.90;52.71;101836.00;4997288;28;96825;-34
2022/04/11 08:02:07;;;;;;;6.72;3.25;;;;;;;11.94;52.55;101824.97;4995789;28;126547;-34
2022/04/11 08:04:32;;;;;;;7.00;3.30;;;;;;;12.04;51.84;101824.44;4996410;28;111080;-34
2022/04/11 08:06:58;;;;;;;6.53;3.35;;;;;;;12.09;50.79;101816.91;4996739;28;96512;-34
2022/04/11 08:09:23;;;;;;;8.65;3.10;;;;;;;12.23;51.98;101821.63;4997226;28;96732;-34
2022/04/11 08:11:48;;;;;;;10.27;3.33;;;;;;;12.48;51.58;101821.19;4995875;28;121466;-34
2022/04/11 08:14:14;;;;;;;7.05;3.50;;;;;;;12.51;49.47;101823.75;4996075;28;122365;-34
2022/04/11 08:16:39;;;;;;;4.70;2.80;;;;;;;12.60;49.16;101826.91;4996954;28;96662;-34
2022/04/11 08:19:04;;;;;;;4.25;2.45;;;;;;;12.72;48.58;101828.97;4996237;28;111626;-34
2022/04/11 08:21:30;;;;;;;5.35;2.55;;;;;;;12.77;48.13;101816.00;4995875;28;99754;-34
2022/04/11 08:23:55;;;;;;;8.98;4.05;;;;;;;12.89;48.60;101828.91;4995692;28;121860;-34
2022/04/11 08:26:20;;;;;;;4.43;2.28;;;;;;;12.94;48.62;101823.19;4991704;28;117181;-34
2022/04/11 08:28:45;;;;;;;5.10;2.80;;;;;;;13.12;47.68;101819.47;4975996;28;112434;-34
2022/04/11 08:31:11;;;;;;;7.32;2.55;;;;;;;13.17;48.68;101819.19;4973774;28;125765;-34
2022/04/11 08:33:36;;;;;;;4.63;2.25;;;;;;;13.24;46.10;101819.72;4975538;28;126417;-34
2022/04/11 08:36:01;;;;;;;7.93;3.22;;;;;;;13.37;46.68;101801.75;4976739;28;96517;-34
2022/04/11 08:38:26;;;;;;;5.57;2.40;;;;;;;13.48;47.47;101815.63;4977000;28;96787;-34
2022/04/11 08:40:54;;;;;;;6.50;2.63;;;;;;;13.58;47.09;101816.81;4975462;28;126048;-34
2022/04/11 08:43:23;;;;;;;4.88;2.47;;;;;;;13.75;46.24;101813.13;4976283;28;99294;-34
2022/04/11 08:45:51;;;;;;;2.25;1.40;;;;;;;13.86;44.38;101822.50;4974467;28;96674;-34
2022/04/11 08:48:17;;;;;;;2.97;1.85;;;;;;;13.89;45.22;101815.00;4975562;28;96908;-35
2022/04/11 08:50:42;;;;;;;2.95;1.77;;;;;;;13.82;44.74;101810.91;4975728;28;114518;-34
2022/04/11 08:53:07;;;;;;;6.28;2.38;;;;;;;13.83;43.52;101809.94;4976123;28;99470;-34
2022/04/11 08:55:34;;;;;;;3.92;1.63;;;;;;;13.91;43.83;101799.44;4976220;28;96810;-34
2022/04/11 08:57:59;;;;;;;7.05;2.55;;;;;;;14.01;45.03;101797.94;4975162;28;96830;-34
2022/04/11 09:00:25;;;;;;;5.45;2.50;;;;;;;14.03;43.01;101800.56;4975867;28;100086;-34
2022/04/11 09:02:50;;;;;;;8.55;2.60;;;;;;;14.14;43.17;101789.03;4976185;28;99452;-34
2022/04/11 09:05:24;;;;;;;8.00;2.35;;;;;;;14.37;44.35;101806.66;4976299;28;96654;-34
2022/04/11 09:07:59;;;;;;;5.63;2.05;;;;;;;14.48;42.62;101789.63;4974126;28;96788;-34
2022/04/11 09:10:32;;;;;;;4.03;2.20;;;;;;;14.50;43.14;101796.75;4974139;28;101093;-34
2022/04/11 09:13:04;;;;;;;3.42;2.28;;;;;;;14.72;41.12;101799.00;4974441;28;99484;-34
2022/04/11 09:15:38;;;;;;;4.53;2.03;;;;;;;14.72;42.80;101782.66;4976235;28;96576;-34
2022/04/11 09:18:03;;;;;;;5.80;2.00;;;;;;;14.87;41.34;101786.25;4974737;28;96726;-34
2022/04/11 09:20:29;;;;;;;3.30;2.20;;;;;;;14.92;42.12;101773.19;4975015;28;116046;-34
2022/04/11 09:22:55;;;;;;;8.30;2.42;;;;;;;15.13;42.56;101757.25;4974284;28;100940;-34
2022/04/11 09:25:23;;;;;;;4.43;2.28;;;;;;;15.40;42.89;101760.00;4975980;28;96599;-34
2022/04/11 09:28:06;;;;;;;3.72;1.90;;;;;;;15.54;41.48;101763.63;4974987;28;96927;-34
2022/04/11 09:30:32;;;;;;;4.30;1.83;;;;;;;15.49;38.19;101773.03;4974212;28;101039;-34
2022/04/11 09:32:57;;;;;;;9.27;2.05;;;;;;;15.40;39.83;101772.78;4975405;28;99296;-35
2022/04/11 09:35:25;;;;;;;5.37;1.97;;;;;;;15.54;39.40;101775.47;4975070;28;101194;-34
2022/04/11 09:38:16;;;;;;;2.58;1.80;;;;;;;15.66;40.48;101771.91;4975427;28;96907;-34
2022/04/11 09:40:52;;;;;;;4.43;2.17;;;;;;;15.89;40.35;101762.13;4974217;28;101094;-34
2022/04/11 09:43:29;;;;;;;2.58;1.63;;;;;;;15.76;37.11;101763.09;4974023;28;100865;-34
2022/04/11 09:45:55;;;;;;;4.88;2.03;;;;;;;15.70;39.82;101775.31;4974344;28;96716;-34
2022/04/11 09:48:23;;;;;;;2.97;1.65;;;;;;;15.78;38.78;101763.84;4974179;28;96840;-34
2022/04/11 09:50:50;;;;;;;11.68;2.85;;;;;;;15.88;39.65;101768.59;4975219;28;99291;-35
2022/04/11 09:53:21;;;;;;;6.47;3.25;;;;;;;16.03;39.39;101755.69;4974263;28;101353;-34
2022/04/11 09:55:50;;;;;;;4.90;2.25;;;;;;;16.13;37.65;101761.41;4974257;28;96612;-34
2022/04/11 09:58:18;;;;;;;4.78;2.38;;;;;;;16.22;39.65;101760.75;4974096;28;96846;-35
2022/04/11 10:00:44;;;;;;;6.22;2.60;;;;;;;16.33;39.31;101752.66;4973085;28;100808;-34
2022/04/11 10:03:10;;;;;;;4.40;2.13;;;;;;;16.31;38.64;101748.28;4975222;28;98082;-34
2022/04/11 10:05:37;;;;;;;3.35;2.00;;;;;;;16.20;37.54;101753.66;4974036;28;96726;-35
2022/04/11 10:08:04;;;;;;;6.53;2.25;;;;;;;16.06;37.38;101763.69;4973245;28;96848;-35
2022/04/11 10:10:34;;;;;;;5.43;2.38;;;;;;;16.14;39.19;101754.97;4973674;28;100933;-34
2022/04/11 10:13:00;;;;;;;4.65;2.65;;;;;;;16.06;37.93;101758.22;4973595;28;100801;-35
2022/04/11 10:15:26;;;;;;;10.63;2.75;;;;;;;16.11;35.96;101747.84;4957168;28;96690;-34
2022/04/11 10:17:53;;;;;;;8.07;3.53;;;;;;;16.21;38.04;101759.03;4975599;28;96852;-34
2022/04/11 10:20:40;;;;;;;7.00;2.35;;;;;;;16.28;36.78;101771.28;4973628;28;100925;-34
2022/04/11 10:23:22;;;;;;;4.00;2.33;;;;;;;16.35;37.96;101736.13;4973225;28;102436;-34
2022/04/11 10:25:50;;;;;;;5.30;3.58;;;;;;;16.51;38.54;101738.66;4973329;28;96756;-34
2022/04/11 10:28:21;;;;;;;7.05;2.83;;;;;;;16.65;37.03;101734.91;4973607;28;96850;-34
2022/04/11 10:31:34;;;;;;;8.63;2.85;;;;;;;16.75;35.58;101739.59;4973565;28;101405;-34
2022/04/11 10:33:59;;;;;;;6.30;3.03;;;;;;;16.68;37.78;101721.00;4992330;28;97939;-35
2022/04/11 10:36:40;;;;;;;6.10;2.15;;;;;;;16.70;34.75;101725.38;4976938;28;96528;-35
2022/04/11 10:39:14;;;;;;;8.75;2.90;;;;;;;16.90;35.64;101731.25;4975260;28;96838;-34
2022/04/11 10:41:58;;;;;;;4.60;2.13;;;;;;;17.14;36.11;101725.84;4974471;28;99278;-34
2022/04/11 10:44:48;;;;;;;5.00;2.58;;;;;;;17.10;33.86;101716.97;4975095;28;97959;-35
2022/04/11 10:47:16;;;;;;;5.28;2.80;;;;;;;17.33;35.56;101719.84;4973717;28;96550;-34
2022/04/11 10:49:45;;;;;;;4.32;2.92;;;;;;;17.57;35.19;101707.00;4975100;28;96801;-34
2022/04/11 10:52:41;;;;;;;6.07;3.17;;;;;;;17.61;33.49;101707.63;4973557;28;111456;-35
2022/04/11 10:55:09;;;;;;;4.40;2.13;;;;;;;17.75;33.64;101709.28;4974335;28;98978;-34
2022/04/11 10:57:39;;;;;;;8.35;2.97;;;;;;;17.60;34.39;101700.41;4974554;28;96760;-34
2022/04/11 11:00:12;;;;;;;9.30;3.05;;;;;;;17.67;35.07;101695.31;4974813;28;96743;-34
2022/04/11 11:02:49;;;;;;;8.20;3.47;;;;;;;17.72;35.66;101684.88;4972968;28;101099;-34
2022/04/11 11:05:31;;;;;;;5.50;2.92;;;;;;;17.68;36.13;101681.50;4974383;28;97828;-35
2022/04/11 11:08:11;;;;;;;4.30;2.60;;;;;;;17.77;34.22;101683.50;4972640;28;96815;-34
2022/04/11 11:10:48;;;;;;;4.68;2.85;;;;;;;17.62;34.20;101671.91;4974728;28;96710;-35
2022/04/11 11:13:35;;;;;;;5.15;3.05;;;;;;;17.56;35.38;101676.97;4978050;28;98073;-35
2022/04/11 11:16:21;;;;;;;4.55;2.70;;;;;;;17.54;34.30;101660.69;4977877;28;97995;-35
2022/04/11 11:18:46;;;;;;;8.48;3.13;;;;;;;17.62;34.72;101660.94;4977541;28;96604;-34
2022/04/11 11:21:32;;;;;;;4.03;2.38;;;;;;;17.42;32.68;101656.13;4977932;28;96870;-34
2022/04/11 11:24:03;;;;;;;11.05;3.10;;;;;;;17.25;32.70;101645.59;4979482;28;99382;-35
2022/04/11 11:26:39;;;;;;;7.80;3.03;;;;;;;16.87;33.53;101636.59;4978161;28;96912;-35